Aviation Digital Data Service (ADDS)

Output produced by METARs form (2154 UTC 21 May 2022)
found at http://www.aviationweather.gov/metar/data/
 
OBBI 212130Z 33017KT CAVOK 32/17 Q1003 NOSIG
TAF OBBI 211700Z 2118/2300 31014KT 6000 NSC 
     TEMPO 2118/2206 4000 DU 
     TEMPO 2206/2214 33020G30KT 
     BECMG 2221/2300 28010KT